Register - Login
Views: 91504353
Main - Memberlist - Active users - Calendar - Wiki - IRC Chat - Online users
Ranks - Rules/FAQ - Stats - Latest Posts - Color Chart - Smilies
05-27-18 12:24:02 PM


3576 users found.
Sort by: Total posts | EXP | User name | Registration date | Age
Sex: Male | Female | N/A | All
Powerlevel: Banned | Normal | Moderator | Administrator | All

# Username Registered on Posts Level EXP
2801. livetek 08-05-09 06:53:06 AM 2 4 160
2802.   RPM 08-04-09 10:34:45 PM 28 13 8404
2803.   davem314 08-04-09 03:38:17 AM 3 5 294
2804.   bigchin 08-03-09 09:57:35 PM 3 5 294
2805.   MysterBlock 08-03-09 07:47:03 PM 1 3 56
2806.   Lightspeed97 08-01-09 07:56:30 AM 3 5 294
2807.   supersuvo64 07-31-09 11:23:25 PM 4 5 454
2808.   dalc789 07-29-09 03:04:16 PM 0 1 0
2809.   Kironide 07-29-09 03:01:03 AM 8 7 1284
2810. dirbaio 07-28-09 09:54:15 AM -1288 NaN NaN
2811.   Mel 07-26-09 08:05:30 PM 12 9 2361
2812.   Acelp21 07-25-09 03:28:54 PM 1 3 56
2813.   LadySTRiPES 07-23-09 10:18:57 AM 148 27 102329
2814.   codeman 07-21-09 08:30:11 PM 1 3 56
2815. Cheatz 07-19-09 04:05:07 PM 4 5 454
2816. Sephiroth 07-18-09 12:34:26 AM 41 15 14932
2817.   bowser97 07-14-09 10:46:21 PM 2 4 160
2818.   CornetTheory 07-14-09 01:47:29 PM 0 1 0
2819.   Hid€€€n 07-13-09 02:59:03 PM 0 1 0
2820.   TenPoundHammer 07-08-09 07:55:11 PM 1 3 56
2821.   wuffy 07-08-09 06:25:45 PM 0 1 0
2822.   TChaos 07-08-09 05:23:59 PM 0 1 0
2823.   expertmac2 07-08-09 11:06:23 AM 2 4 161
2824.   YoshiSonic 07-07-09 04:40:53 AM 1 3 56
2825.   Warz 07-06-09 01:45:18 PM 1 3 56
2826.   Shadow Bone 07-06-09 11:45:17 AM 10 8 1801
2827.   Link 70222 07-02-09 08:12:55 PM 47 16 18371
2828.   danielvillaf 07-02-09 02:55:04 AM 4 5 456
2829.   Naldrag 07-01-09 08:29:44 AM 0 1 0
2830.   FunkMario64 06-29-09 05:14:09 PM 0 1 0
2831.   dreamdragon 06-28-09 10:53:07 PM 1 3 57
2832.   mariotool 06-28-09 06:52:28 PM 0 1 0
2833. PSI Purple 06-28-09 12:58:15 AM 60 18 26517
2834. Corruptendo 06-27-09 01:27:06 PM 3 5 296
2835.   El Huesudo II 06-26-09 06:19:34 PM 7 7 1056
2836.   Hiyoko 06-25-09 01:52:00 PM 16 10 3653
2837.   DorskyMarippy 06-25-09 08:01:57 AM 1 3 57
2838.   Garmichael 06-24-09 02:10:05 AM 121 24 75988
2839.   Xk-chan 06-22-09 05:18:19 AM 12 9 2373
2840.   Zonic 06-22-09 01:53:31 AM 6 6 839
2841.   Kyouchou Budgie 06-22-09 12:03:14 AM 0 1 0
2842.   Marzen 06-21-09 04:40:26 PM 47 16 18402
2843. z-byte 06-21-09 04:12:26 PM 32 14 10338
2844.   Knave 06-21-09 03:13:50 AM 26 12 7572
2845.   Moustique 06-20-09 04:12:05 PM 3 5 296
2846. IcedCoffee 06-20-09 01:43:17 PM 9 8 1542
2847. Ctenophorae 06-19-09 04:58:14 PM 1921 81 4810092
2848.   goldencarddx 06-19-09 12:58:39 AM 1 3 57
2849.   Disch 06-18-09 08:58:45 PM 11 8 2084
2850.   Liam 06-18-09 03:07:18 PM 0 1 0
Pages: 1 2 3 4 5 6 7 8 9 10 11 12 13 14 15 16 17 18 19 20 21 22 23 24 25 26 27 28 29 30 31 32 33 34 35 36 37 38 39 40 41 42 43 44 45 46 47 48 49 50 51 52 53 54 55 56 57 58 59 60 61 62 63 64 65 66 67 68 69 70 71 72



Rusted Logic

Acmlmboard - commit 5d36857 [2018-03-03]
©2000-2018 Acmlm, Xkeeper, Inuyasha, et al.

11 database queries.
Query execution time: 0.208949 seconds
Script execution time: 0.027264 seconds
Total render time: 0.236213 seconds
Memory used: 22544384